Time;durP1;ratioP1;P1;durP2;ratioP2;P2;SDS_P1;SDS_P2;PMS_P1;PMS_P2;Temp;Humidity;BMP_temperature;BMP_pressure;BME280_temperature;BME280_humidity;BME280_pressure;Samples;Min_cycle;Max_cycle;Signal;HPM_P1;HPM_P2
2023/06/15 00:00:18;;;;;;;;;;;;;;;22.15;27.14;97770.22;5011497;28;1483;-77
2023/06/15 00:02:44;;;;;;;;;;;;;;;21.82;28.05;97770.44;5001124;28;1117;-77
2023/06/15 00:05:10;;;;;;;;;;;;;;;21.84;27.82;97780.03;5007669;28;1471;-76
2023/06/15 00:07:36;;;;;;;;;;;;;;;21.71;28.10;97776.41;5004970;28;1910;-76
2023/06/15 00:10:01;;;;;;;;;;;;;;;21.69;28.11;97773.22;5004495;28;1232;-76
2023/06/15 00:12:27;;;;;;;;;;;;;;;21.85;27.91;97756.13;5005089;28;956;-77
2023/06/15 00:14:52;;;;;;;;;;;;;;;21.55;28.76;97763.16;4997761;28;1203;-76
2023/06/15 00:17:18;;;;;;;;;;;;;;;21.57;28.61;97765.53;4982029;28;1242;-76
2023/06/15 00:19:44;;;;;;;;;;;;;;;21.64;28.42;97768.13;4942498;29;1631;-78
2023/06/15 00:22:14;;;;;;;;;;;;;;;21.66;28.35;97771.31;4958941;29;962;-76
2023/06/15 00:24:43;;;;;;;;;;;;;;;21.82;28.19;97776.09;4958944;29;954;-77
2023/06/15 00:27:09;;;;;;;;;;;;;;;21.79;28.20;97766.44;4959017;29;1973;-77
2023/06/15 00:29:34;;;;;;;;;;;;;;;22.26;27.81;97753.66;4959095;29;1030;-76
2023/06/15 00:32:00;;;;;;;;;;;;;;;22.63;27.13;97755.59;4959196;29;1009;-76
2023/06/15 00:34:25;;;;;;;;;;;;;;;22.26;27.90;97754.44;4958752;28;1608;-76
2023/06/15 00:36:51;;;;;;;;;;;;;;;22.10;28.26;97752.53;4962111;28;954;-77
2023/06/15 00:39:18;;;;;;;;;;;;;;;22.15;27.67;97745.50;4961563;28;1125;-77
2023/06/15 00:41:43;;;;;;;;;;;;;;;21.76;28.21;97755.22;4961695;28;1122;-77
2023/06/15 00:44:09;;;;;;;;;;;;;;;21.81;28.39;97751.81;4977568;28;982;-76
2023/06/15 00:46:35;;;;;;;;;;;;;;;21.46;28.97;97759.38;4981136;28;1954;-76
2023/06/15 00:49:00;;;;;;;;;;;;;;;21.74;28.82;97752.84;4977119;28;1495;-76
2023/06/15 00:51:26;;;;;;;;;;;;;;;22.39;28.37;97750.81;4976948;28;1209;-76
2023/06/15 00:53:51;;;;;;;;;;;;;;;22.80;28.04;97752.63;5000367;28;1039;-76
2023/06/15 00:56:17;;;;;;;;;;;;;;;22.32;28.54;97752.63;5000723;28;1002;-76
2023/06/15 00:58:43;;;;;;;;;;;;;;;22.22;29.33;97742.44;5015040;28;1405;-77
2023/06/15 01:01:09;;;;;;;;;;;;;;;21.89;29.64;97752.41;5019457;28;1508;-77
2023/06/15 01:03:35;;;;;;;;;;;;;;;21.98;29.71;97749.69;5019779;28;907;-77
2023/06/15 01:06:01;;;;;;;;;;;;;;;21.73;30.11;97754.09;4987482;28;1977;-76
2023/06/15 01:08:26;;;;;;;;;;;;;;;21.95;30.10;97756.25;5003484;28;945;-77
2023/06/15 01:10:53;;;;;;;;;;;;;;;21.79;30.46;97760.78;5016188;28;1360;-77
2023/06/15 01:13:19;;;;;;;;;;;;;;;21.82;30.31;97754.22;5019625;28;883;-77
2023/06/15 01:15:46;;;;;;;;;;;;;;;21.75;30.65;97757.25;4980193;28;1892;-77
2023/06/15 01:18:20;;;;;;;;;;;;;;;21.74;30.63;97757.72;4964454;28;1198;-76
2023/06/15 01:20:48;;;;;;;;;;;;;;;21.88;30.80;97748.00;4996986;28;945;-77
2023/06/15 01:23:18;;;;;;;;;;;;;;;21.85;30.85;97758.97;4980448;28;1199;-77
2023/06/15 01:25:53;;;;;;;;;;;;;;;21.93;30.77;97747.44;4942194;29;1390;-77
2023/06/15 01:28:20;;;;;;;;;;;;;;;22.02;30.30;97748.34;4957456;29;983;-77
2023/06/15 01:30:47;;;;;;;;;;;;;;;22.05;30.31;97752.28;4922112;29;1396;-77
2023/06/15 01:33:13;;;;;;;;;;;;;;;22.09;30.55;97750.13;4938204;29;1252;-76
2023/06/15 01:35:38;;;;;;;;;;;;;;;21.97;30.59;97736.78;4901009;29;1152;-77
2023/06/15 01:38:07;;;;;;;;;;;;;;;22.12;30.47;97743.56;4885568;29;1146;-77
2023/06/15 01:40:34;;;;;;;;;;;;;;;21.76;31.03;97739.03;4877724;29;1623;-77
2023/06/15 01:42:59;;;;;;;;;;;;;;;21.88;30.90;97736.66;4866348;29;879;-77
2023/06/15 01:45:25;;;;;;;;;;;;;;;22.01;30.70;97737.44;4841719;29;1447;-77
2023/06/15 01:47:51;;;;;;;;;;;;;;;22.07;30.52;97739.25;4871234;29;1907;-76
2023/06/15 01:50:16;;;;;;;;;;;;;;;22.15;30.48;97742.66;4896903;29;1032;-77
2023/06/15 01:52:42;;;;;;;;;;;;;;;22.14;30.54;97728.97;4881386;29;1213;-76
2023/06/15 01:55:07;;;;;;;;;;;;;;;22.03;30.64;97737.78;4897234;29;1118;-77
2023/06/15 01:57:35;;;;;;;;;;;;;;;21.88;30.90;97731.00;4912990;29;1157;-77
2023/06/15 02:00:01;;;;;;;;;;;;;;;22.00;30.73;97727.34;4885995;29;1551;-76
2023/06/15 02:02:27;;;;;;;;;;;;;;;22.01;30.78;97732.56;4915197;29;947;-77
2023/06/15 02:04:52;;;;;;;;;;;;;;;21.75;31.21;97730.97;4902987;29;974;-77
2023/06/15 02:07:18;;;;;;;;;;;;;;;21.81;31.03;97729.97;4919028;29;1903;-77
2023/06/15 02:09:43;;;;;;;;;;;;;;;21.81;30.87;97724.31;4903165;29;1082;-77
2023/06/15 02:12:09;;;;;;;;;;;;;;;22.04;30.49;97725.22;4886912;29;1061;-77
2023/06/15 02:14:35;;;;;;;;;;;;;;;22.02;30.78;97719.19;4921438;29;1320;-77
2023/06/15 02:17:02;;;;;;;;;;;;;;;21.81;31.27;97729.97;4937847;29;1483;-77
2023/06/15 02:19:28;;;;;;;;;;;;;;;21.72;31.23;97729.88;4937763;29;990;-78
2023/06/15 02:21:53;;;;;;;;;;;;;;;21.84;31.06;97734.72;4955460;28;1136;-77
2023/06/15 02:24:19;;;;;;;;;;;;;;;21.98;31.04;97738.38;4959695;28;967;-76
2023/06/15 02:26:45;;;;;;;;;;;;;;;22.15;30.59;97742.66;4975823;28;2040;-77
2023/06/15 02:29:12;;;;;;;;;;;;;;;22.04;30.88;97747.88;4959614;28;1604;-76
2023/06/15 02:31:38;;;;;;;;;;;;;;;22.07;30.65;97738.44;4959868;28;1358;-77
2023/06/15 02:34:03;;;;;;;;;;;;;;;22.09;30.84;97744.47;4976312;28;974;-77
2023/06/15 02:36:30;;;;;;;;;;;;;;;22.02;30.81;97745.50;4960418;28;1279;-77
2023/06/15 02:38:56;;;;;;;;;;;;;;;22.27;30.14;97747.53;4959759;28;1136;-77
2023/06/15 02:41:22;;;;;;;;;;;;;;;21.98;30.69;97750.47;4947311;28;1554;-76
2023/06/15 02:43:47;;;;;;;;;;;;;;;21.94;31.07;97749.00;4955464;28;973;-76
2023/06/15 02:46:13;;;;;;;;;;;;;;;22.13;30.49;97745.19;4944175;28;1979;-77
2023/06/15 02:48:40;;;;;;;;;;;;;;;22.08;30.55;97742.88;4959512;28;1478;-76
2023/06/15 02:51:06;;;;;;;;;;;;;;;22.27;30.05;97739.03;4976122;28;1266;-77
2023/06/15 02:53:32;;;;;;;;;;;;;;;22.23;30.12;97738.38;4975334;28;953;-77
2023/06/15 02:55:58;;;;;;;;;;;;;;;22.22;30.11;97748.09;4960137;28;1360;-77
2023/06/15 02:58:26;;;;;;;;;;;;;;;22.19;30.46;97743.34;4956618;28;1415;-77
2023/06/15 03:01:07;;;;;;;;;;;;;;;22.10;30.48;97746.03;4975895;28;1295;-77
2023/06/15 03:03:50;;;;;;;;;;;;;;;22.09;30.59;97744.47;4945587;28;1312;-77
2023/06/15 03:06:16;;;;;;;;;;;;;;;22.13;30.59;97738.72;4959906;28;1911;-77
2023/06/15 03:08:42;;;;;;;;;;;;;;;22.10;30.61;97746.88;4958656;28;1360;-77
2023/06/15 03:11:34;;;;;;;;;;;;;;;22.25;30.16;97741.53;4903142;29;1288;-76
2023/06/15 03:14:00;;;;;;;;;;;;;;;22.27;30.14;97741.84;4914865;29;1071;-76
2023/06/15 03:16:39;;;;;;;;;;;;;;;22.27;30.48;97741.06;4884543;29;1249;-77
2023/06/15 03:19:05;;;;;;;;;;;;;;;22.37;30.26;97739.91;4913549;29;1152;-77
2023/06/15 03:21:31;;;;;;;;;;;;;;;22.29;30.22;97750.72;4899215;29;1341;-77
2023/06/15 03:23:58;;;;;;;;;;;;;;;22.19;30.34;97749.03;4914769;29;1365;-76
2023/06/15 03:26:26;;;;;;;;;;;;;;;22.34;30.13;97755.81;4903512;29;1969;-77
2023/06/15 03:28:53;;;;;;;;;;;;;;;22.32;30.39;97749.00;4918007;29;1161;-77
2023/06/15 03:31:20;;;;;;;;;;;;;;;22.08;30.52;97746.50;4917914;29;1466;-77
2023/06/15 03:33:48;;;;;;;;;;;;;;;22.17;30.72;97762.84;4902176;29;1168;-77
2023/06/15 03:36:16;;;;;;;;;;;;;;;22.10;30.66;97758.19;4903216;29;1296;-77
2023/06/15 03:38:42;;;;;;;;;;;;;;;22.24;30.39;97756.16;4890003;29;1353;-77
2023/06/15 03:41:09;;;;;;;;;;;;;;;21.99;30.78;97762.59;4948697;28;1401;-77
2023/06/15 03:43:37;;;;;;;;;;;;;;;22.12;30.81;97766.25;4961228;28;1689;-76
2023/06/15 03:46:06;;;;;;;;;;;;;;;22.21;30.65;97768.41;4975845;28;1975;-77
2023/06/15 03:48:32;;;;;;;;;;;;;;;22.02;30.99;97761.69;5021987;28;1108;-77
2023/06/15 03:50:58;;;;;;;;;;;;;;;22.04;30.97;97767.69;5023095;28;1215;-77
2023/06/15 03:53:24;;;;;;;;;;;;;;;22.16;30.60;97769.75;5022418;28;1379;-77
2023/06/15 03:55:50;;;;;;;;;;;;;;;21.97;30.85;97777.22;5038866;28;1639;-77
2023/06/15 03:58:17;;;;;;;;;;;;;;;21.89;31.20;97780.72;5022336;28;1346;-77
2023/06/15 04:00:43;;;;;;;;;;;;;;;22.09;30.79;97772.81;5022821;28;1171;-77
2023/06/15 04:03:09;;;;;;;;;;;;;;;22.01;31.09;97760.88;5038774;28;1171;-76
2023/06/15 04:05:35;;;;;;;;;;;;;;;22.09;30.88;97767.13;5001605;28;1077;-76
2023/06/15 04:08:01;;;;;;;;;;;;;;;22.18;30.54;97769.31;4998948;28;1935;-77
2023/06/15 04:10:27;;;;;;;;;;;;;;;22.31;30.49;97773.72;5017669;28;1175;-77
2023/06/15 04:12:53;;;;;;;;;;;;;;;21.98;31.06;97775.19;5000419;28;1427;-77
2023/06/15 04:15:18;;;;;;;;;;;;;;;22.42;30.58;97772.56;5000654;28;1341;-77
2023/06/15 04:17:48;;;;;;;;;;;;;;;22.45;30.33;97774.50;4990138;28;1266;-77
2023/06/15 04:20:14;;;;;;;;;;;;;;;22.30;30.48;97783.47;4982374;28;1243;-77
2023/06/15 04:22:40;;;;;;;;;;;;;;;22.30;30.75;97777.81;4991050;28;1270;-76
2023/06/15 04:25:06;;;;;;;;;;;;;;;22.14;30.79;97792.09;4992933;28;1261;-77
2023/06/15 04:27:34;;;;;;;;;;;;;;;22.12;30.96;97788.13;4976534;28;1907;-77
2023/06/15 04:30:00;;;;;;;;;;;;;;;22.15;30.96;97790.84;4984575;28;1666;-77
2023/06/15 04:32:30;;;;;;;;;;;;;;;22.35;30.54;97788.56;4980957;28;1769;-77
2023/06/15 04:34:57;;;;;;;;;;;;;;;22.26;30.90;97794.13;4950170;28;1145;-77
2023/06/15 04:37:23;;;;;;;;;;;;;;;22.20;31.24;97795.94;4965894;28;1351;-77
2023/06/15 04:39:50;;;;;;;;;;;;;;;22.40;30.78;97803.41;4981471;28;1230;-76
2023/06/15 04:42:18;;;;;;;;;;;;;;;22.33;30.81;97793.91;4965191;28;1437;-76
2023/06/15 04:44:45;;;;;;;;;;;;;;;22.21;31.06;97803.19;4977611;28;1141;-77
2023/06/15 04:47:11;;;;;;;;;;;;;;;22.30;31.13;97800.47;4999221;28;1910;-77
2023/06/15 04:49:36;;;;;;;;;;;;;;;22.33;30.78;97808.09;5000028;28;1278;-77
2023/06/15 04:52:02;;;;;;;;;;;;;;;22.17;31.20;97805.34;4984090;28;1286;-77
2023/06/15 04:54:29;;;;;;;;;;;;;;;22.02;31.28;97812.69;4999151;28;1309;-77
2023/06/15 04:56:57;;;;;;;;;;;;;;;22.15;31.16;97822.03;5000448;28;1301;-76
2023/06/15 04:59:23;;;;;;;;;;;;;;;22.01;31.33;97816.75;4983042;28;1286;-77
2023/06/15 05:01:49;;;;;;;;;;;;;;;22.27;31.08;97818.38;4999930;28;1222;-77
2023/06/15 05:04:40;;;;;;;;;;;;;;;22.23;31.18;97829.06;4955731;29;1129;-77
2023/06/15 05:07:06;;;;;;;;;;;;;;;22.40;30.89;97809.88;4941456;29;1906;-77
2023/06/15 05:09:37;;;;;;;;;;;;;;;22.36;31.07;97818.50;4941218;29;1292;-77
2023/06/15 05:12:08;;;;;;;;;;;;;;;22.13;31.38;97820.91;4948782;29;1240;-76
2023/06/15 05:14:34;;;;;;;;;;;;;;;22.19;31.28;97822.69;4941365;29;1203;-77
2023/06/15 05:17:03;;;;;;;;;;;;;;;22.34;30.94;97825.88;4936463;29;1117;-77
2023/06/15 05:19:32;;;;;;;;;;;;;;;22.29;31.09;97829.28;4903950;29;1111;-77
2023/06/15 05:22:00;;;;;;;;;;;;;;;22.14;31.07;97837.44;4904366;29;1128;-77
2023/06/15 05:24:26;;;;;;;;;;;;;;;22.36;30.91;97832.66;4903915;29;1130;-77
2023/06/15 05:26:51;;;;;;;;;;;;;;;22.40;30.92;97831.78;4904182;29;1964;-77
2023/06/15 05:29:17;;;;;;;;;;;;;;;22.35;30.80;97833.91;4903662;29;1128;-77
2023/06/15 05:31:43;;;;;;;;;;;;;;;22.52;30.58;97831.75;4903914;29;1330;-77
2023/06/15 05:34:08;;;;;;;;;;;;;;;22.44;30.89;97838.13;4888066;29;1225;-77
2023/06/15 05:36:35;;;;;;;;;;;;;;;22.57;30.44;97836.84;4904171;29;1287;-77
2023/06/15 05:39:01;;;;;;;;;;;;;;;22.46;30.55;97835.63;4904085;29;1173;-76
2023/06/15 05:41:27;;;;;;;;;;;;;;;22.28;31.09;97837.00;4922657;28;1118;-77
2023/06/15 05:43:52;;;;;;;;;;;;;;;22.23;30.90;97846.06;4925487;28;1076;-77
2023/06/15 05:46:19;;;;;;;;;;;;;;;22.22;31.09;97855.78;4941761;29;1980;-77
2023/06/15 05:48:45;;;;;;;;;;;;;;;22.25;31.02;97849.22;4957204;28;1304;-77
2023/06/15 05:51:10;;;;;;;;;;;;;;;22.44;30.50;97841.75;4991389;28;1282;-77
2023/06/15 05:53:36;;;;;;;;;;;;;;;22.48;30.61;97850.13;5002526;28;1107;-77
2023/06/15 05:56:03;;;;;;;;;;;;;;;22.27;30.98;97841.06;4986802;28;1242;-77
2023/06/15 05:58:29;;;;;;;;;;;;;;;22.27;31.09;97843.88;4943831;28;1081;-77
2023/06/15 06:00:55;;;;;;;;;;;;;;;22.61;30.36;97836.72;4938295;29;1246;-77
2023/06/15 06:03:21;;;;;;;;;;;;;;;22.23;31.17;97846.06;4918766;29;1010;-77
2023/06/15 06:05:48;;;;;;;;;;;;;;;22.42;30.92;97840.59;4903847;29;1255;-76
2023/06/15 06:08:14;;;;;;;;;;;;;;;22.34;30.89;97846.50;4903201;29;1915;-77
2023/06/15 06:10:40;;;;;;;;;;;;;;;22.26;30.94;97845.13;4903730;29;1110;-77
2023/06/15 06:13:38;;;;;;;;;;;;;;;22.44;30.84;97849.47;4899835;29;1011;-77
2023/06/15 06:16:03;;;;;;;;;;;;;;;22.55;30.54;97844.22;4866580;29;1138;-77
2023/06/15 06:18:29;;;;;;;;;;;;;;;22.46;30.89;97846.97;4881565;29;1310;-77
2023/06/15 06:20:55;;;;;;;;;;;;;;;22.30;31.04;97856.38;4881887;29;1038;-77
2023/06/15 06:23:21;;;;;;;;;;;;;;;22.40;30.86;97851.63;4881090;29;1196;-77
2023/06/15 06:25:47;;;;;;;;;;;;;;;22.13;31.44;97852.06;4881363;29;1239;-76
2023/06/15 06:28:12;;;;;;;;;;;;;;;22.61;30.71;97843.19;4880859;29;1939;-76
2023/06/15 06:30:38;;;;;;;;;;;;;;;22.34;31.08;97857.84;4902268;29;958;-77
2023/06/15 06:33:04;;;;;;;;;;;;;;;22.51;30.92;97847.19;4887236;29;987;-77
2023/06/15 06:35:29;;;;;;;;;;;;;;;22.26;31.24;97845.13;4902985;29;1026;-77
2023/06/15 06:37:55;;;;;;;;;;;;;;;22.43;30.95;97847.84;4924484;29;1006;-76
2023/06/15 06:40:20;;;;;;;;;;;;;;;22.59;30.58;97848.53;4918136;29;1033;-77
2023/06/15 06:42:46;;;;;;;;;;;;;;;22.47;30.79;97851.38;4903274;29;970;-77
2023/06/15 06:45:12;;;;;;;;;;;;;;;22.45;30.92;97859.56;4918357;29;1240;-78
2023/06/15 06:47:37;;;;;;;;;;;;;;;22.25;31.06;97854.91;4902440;29;1978;-77
2023/06/15 06:50:05;;;;;;;;;;;;;;;22.18;31.54;97849.47;4871352;29;1028;-77
2023/06/15 06:52:30;;;;;;;;;;;;;;;22.50;30.91;97845.59;4850882;29;889;-77
2023/06/15 06:54:56;;;;;;;;;;;;;;;22.46;30.93;97841.28;4865603;29;1051;-77
2023/06/15 06:57:21;;;;;;;;;;;;;;;22.47;31.04;97848.53;4893085;29;959;-77
2023/06/15 06:59:47;;;;;;;;;;;;;;;22.43;30.98;97847.84;4918511;29;1238;-77
2023/06/15 07:02:12;;;;;;;;;;;;;;;22.39;31.17;97859.31;4918689;29;896;-77
2023/06/15 07:04:39;;;;;;;;;;;;;;;22.22;31.37;97844.44;4918341;29;972;-78
2023/06/15 07:07:04;;;;;;;;;;;;;;;22.29;31.31;97857.63;4934647;29;1919;-77
2023/06/15 07:09:30;;;;;;;;;;;;;;;22.41;31.04;97844.69;4934240;29;1288;-77
2023/06/15 07:11:56;;;;;;;;;;;;;;;22.70;30.65;97848.19;4951233;29;949;-77
2023/06/15 07:14:21;;;;;;;;;;;;;;;22.46;31.08;97846.97;4941253;29;932;-77
2023/06/15 07:16:47;;;;;;;;;;;;;;;22.53;30.78;97858.06;4941776;29;1706;-78
2023/06/15 07:19:12;;;;;;;;;;;;;;;22.65;30.57;97847.97;4974801;28;1409;-77
2023/06/15 07:21:39;;;;;;;;;;;;;;;22.54;30.74;97854.00;4980234;28;1120;-77
2023/06/15 07:24:04;;;;;;;;;;;;;;;22.33;31.22;97850.59;4944237;29;1100;-77
2023/06/15 07:26:30;;;;;;;;;;;;;;;22.40;30.96;97854.44;4960358;29;1991;-78
2023/06/15 07:28:56;;;;;;;;;;;;;;;22.48;31.13;97847.28;4944440;29;1213;-77
2023/06/15 07:31:21;;;;;;;;;;;;;;;22.41;30.92;97853.19;4944636;29;1387;-78
2023/06/15 07:33:47;;;;;;;;;;;;;;;22.42;31.04;97846.28;4959962;29;905;-78
2023/06/15 07:36:12;;;;;;;;;;;;;;;22.51;30.89;97849.22;4960360;29;957;-78
2023/06/15 07:38:38;;;;;;;;;;;;;;;22.42;31.29;97834.94;4972621;28;1316;-77
2023/06/15 07:41:03;;;;;;;;;;;;;;;22.63;30.77;97846.34;4983065;28;1049;-77
2023/06/15 07:43:29;;;;;;;;;;;;;;;22.44;30.95;97843.78;4999267;28;966;-77
2023/06/15 07:45:54;;;;;;;;;;;;;;;22.62;30.87;97844.00;4983367;28;918;-77
2023/06/15 07:48:20;;;;;;;;;;;;;;;22.42;31.26;97857.63;4982411;28;1910;-78
2023/06/15 07:50:46;;;;;;;;;;;;;;;22.28;31.74;97848.34;4966688;28;1348;-77
2023/06/15 07:53:12;;;;;;;;;;;;;;;22.41;31.31;97856.03;4982465;28;1030;-77
2023/06/15 07:55:37;;;;;;;;;;;;;;;22.59;30.89;97850.59;4973985;28;968;-78
2023/06/15 07:58:03;;;;;;;;;;;;;;;22.56;31.00;97845.81;4947001;28;974;-77
2023/06/15 08:00:28;;;;;;;;;;;;;;;22.50;31.26;97854.09;4962984;28;981;-77
2023/06/15 08:03:00;;;;;;;;;;;;;;;22.43;30.99;97854.31;4963643;28;973;-77
2023/06/15 08:05:25;;;;;;;;;;;;;;;22.38;31.52;97863.38;4962870;28;1012;-77
2023/06/15 08:07:51;;;;;;;;;;;;;;;22.43;31.55;97859.19;4962509;28;1907;-77
2023/06/15 08:10:17;;;;;;;;;;;;;;;22.64;30.84;97852.84;4940266;29;977;-77
2023/06/15 08:12:43;;;;;;;;;;;;;;;22.49;31.28;97851.72;4940180;29;1026;-78
2023/06/15 08:15:09;;;;;;;;;;;;;;;22.58;31.16;97848.97;4927094;29;1140;-77
2023/06/15 08:17:35;;;;;;;;;;;;;;;22.56;30.99;97857.16;4959477;29;1168;-77
2023/06/15 08:20:01;;;;;;;;;;;;;;;22.71;31.12;97848.97;4959216;29;1266;-78
2023/06/15 08:22:27;;;;;;;;;;;;;;;22.59;31.08;97856.25;4958970;28;1022;-77
2023/06/15 08:24:53;;;;;;;;;;;;;;;22.35;31.27;97853.75;4927139;29;1239;-77
2023/06/15 08:27:19;;;;;;;;;;;;;;;22.27;31.71;97858.06;4958739;28;1906;-77
2023/06/15 08:29:44;;;;;;;;;;;;;;;22.55;31.18;97861.25;4978229;28;1096;-77
2023/06/15 08:32:13;;;;;;;;;;;;;;;22.59;30.98;97850.59;4978654;28;926;-77
2023/06/15 08:34:39;;;;;;;;;;;;;;;22.43;31.01;97859.97;4977899;28;1091;-77
2023/06/15 08:37:05;;;;;;;;;;;;;;;22.50;31.11;97858.97;4978027;28;1190;-77
2023/06/15 08:39:31;;;;;;;;;;;;;;;22.52;30.98;97856.47;4977655;28;1053;-77
2023/06/15 08:41:56;;;;;;;;;;;;;;;22.45;30.89;97851.03;4992869;28;1296;-77
2023/06/15 08:44:22;;;;;;;;;;;;;;;22.32;31.27;97860.31;4980523;28;838;-77
2023/06/15 08:46:47;;;;;;;;;;;;;;;22.29;31.22;97860.47;4981316;28;1919;-77
2023/06/15 08:49:13;;;;;;;;;;;;;;;22.26;31.30;97855.69;4981034;28;980;-77
2023/06/15 08:51:39;;;;;;;;;;;;;;;22.29;31.28;97855.59;4981172;28;1198;-77
2023/06/15 08:54:04;;;;;;;;;;;;;;;22.51;30.61;97855.69;5008439;28;950;-77
2023/06/15 08:56:31;;;;;;;;;;;;;;;22.59;30.57;97850.59;5034364;28;1006;-77
2023/06/15 08:58:57;;;;;;;;;;;;;;;22.32;30.94;97860.31;5016293;28;987;-77
2023/06/15 09:01:23;;;;;;;;;;;;;;;22.42;30.56;97854.78;5000274;28;1261;-77
2023/06/15 09:03:50;;;;;;;;;;;;;;;22.48;30.45;97848.06;5000166;28;1171;-77
2023/06/15 09:06:15;;;;;;;;;;;;;;;22.42;30.57;97857.63;5000631;28;1987;-77
2023/06/15 09:08:41;;;;;;;;;;;;;;;22.49;30.28;97863.06;5016944;28;976;-77
2023/06/15 09:11:07;;;;;;;;;;;;;;;22.31;30.63;97858.75;5016693;28;1036;-76
2023/06/15 09:13:33;;;;;;;;;;;;;;;22.48;30.23;97855.78;4999297;28;896;-77
2023/06/15 09:15:59;;;;;;;;;;;;;;;22.38;30.46;97856.94;5016727;28;864;-77
2023/06/15 09:18:25;;;;;;;;;;;;;;;22.28;30.55;97859.66;4999870;28;1001;-77
2023/06/15 09:20:50;;;;;;;;;;;;;;;22.57;30.30;97839.69;5000086;28;779;-77
2023/06/15 09:23:16;;;;;;;;;;;;;;;22.38;30.38;97863.38;5015597;28;866;-77
2023/06/15 09:25:47;;;;;;;;;;;;;;;22.42;30.23;97851.94;5015827;28;827;-76
2023/06/15 09:28:13;;;;;;;;;;;;;;;22.43;30.44;97853.53;4999129;28;1918;-76
2023/06/15 09:30:39;;;;;;;;;;;;;;;22.27;30.83;97857.25;5013707;28;913;-76
2023/06/15 09:33:12;;;;;;;;;;;;;;;22.27;30.72;97852.38;5033108;28;1000;-76
2023/06/15 09:35:38;;;;;;;;;;;;;;;22.19;30.50;97862.38;5033507;28;1246;-76
2023/06/15 09:38:03;;;;;;;;;;;;;;;20.70;30.46;97624.19;5033838;28;839;-77
2023/06/15 09:40:30;;;;;;;;;;;;;;;22.45;30.40;97851.03;5017536;28;1013;-76
2023/06/15 09:42:56;;;;;;;;;;;;;;;22.15;30.73;97850.34;5018362;28;872;-76
2023/06/15 09:45:21;;;;;;;;;;;;;;;22.34;30.47;97857.84;5033487;28;852;-76
2023/06/15 09:47:53;;;;;;;;;;;;;;;22.31;30.53;97855.13;5018501;28;1973;-77
2023/06/15 09:50:19;;;;;;;;;;;;;;;22.19;30.58;97845.38;5033240;28;942;-76
2023/06/15 09:52:45;;;;;;;;;;;;;;;22.35;30.31;97845.25;5033821;28;1235;-76
2023/06/15 09:55:10;;;;;;;;;;;;;;;22.32;30.43;97860.31;5020215;28;961;-77
2023/06/15 09:57:36;;;;;;;;;;;;;;;22.41;30.37;97856.03;5000588;28;1242;-76
2023/06/15 10:00:02;;;;;;;;;;;;;;;22.35;30.27;97858.63;5033072;28;1096;-77
2023/06/15 10:02:37;;;;;;;;;;;;;;;22.25;30.49;97849.22;5033567;28;1034;-77
2023/06/15 10:05:05;;;;;;;;;;;;;;;22.36;30.28;97857.38;5017914;28;967;-77
2023/06/15 10:07:32;;;;;;;;;;;;;;;22.27;30.67;97857.25;5035017;28;1914;-78
2023/06/15 10:09:58;;;;;;;;;;;;;;;22.11;31.00;97849.66;5033577;28;1058;-78
2023/06/15 10:12:25;;;;;;;;;;;;;;;22.29;30.56;97844.25;5033959;28;1317;-77
2023/06/15 10:15:04;;;;;;;;;;;;;;;22.62;29.95;97841.16;5033568;28;967;-77
2023/06/15 10:17:35;;;;;;;;;;;;;;;22.18;30.71;97843.78;5049670;28;878;-77
2023/06/15 10:20:09;;;;;;;;;;;;;;;22.27;30.64;97843.88;5035654;28;930;-78
2023/06/15 10:22:48;;;;;;;;;;;;;;;22.47;30.21;97838.00;5036084;28;788;-77
2023/06/15 10:25:14;;;;;;;;;;;;;;;22.44;30.08;97835.28;4963988;28;1108;-78
2023/06/15 10:27:40;;;;;;;;;;;;;;;22.25;30.42;97843.56;4960488;28;1972;-77
2023/06/15 10:30:25;;;;;;;;;;;;;;;22.44;30.25;97840.97;4976664;28;875;-77
2023/06/15 10:32:55;;;;;;;;;;;;;;;22.51;29.99;97832.22;4903106;29;1237;-77
2023/06/15 10:35:24;;;;;;;;;;;;;;;22.47;29.86;97837.19;4903233;29;1251;-78
2023/06/15 10:37:49;;;;;;;;;;;;;;;22.39;30.23;97836.66;4919069;29;1112;-77
2023/06/15 10:40:35;;;;;;;;;;;;;;;22.34;30.54;97835.19;4918834;29;1300;-78
2023/06/15 10:43:02;;;;;;;;;;;;;;;22.47;30.43;97840.81;4918121;29;1065;-77
2023/06/15 10:45:31;;;;;;;;;;;;;;;22.28;30.71;97842.66;4903018;29;818;-77
2023/06/15 10:47:58;;;;;;;;;;;;;;;22.24;30.52;97830.63;4903766;29;1911;-77
2023/06/15 10:50:24;;;;;;;;;;;;;;;22.22;30.70;97830.28;4899512;29;1006;-77
2023/06/15 10:52:50;;;;;;;;;;;;;;;22.27;30.58;97838.22;4899848;29;835;-77
2023/06/15 10:55:16;;;;;;;;;;;;;;;22.39;30.27;97821.69;4919922;29;1148;-78
2023/06/15 10:57:41;;;;;;;;;;;;;;;22.22;30.64;97833.13;4954113;29;1164;-77
2023/06/15 11:00:10;;;;;;;;;;;;;;;22.33;30.45;97816.59;4937894;29;890;-77
2023/06/15 11:02:35;;;;;;;;;;;;;;;22.18;30.45;97820.34;4938128;29;890;-77
2023/06/15 11:05:04;;;;;;;;;;;;;;;22.09;30.82;97830.25;4937740;29;926;-77
2023/06/15 11:07:33;;;;;;;;;;;;;;;22.34;30.42;97814.53;4900132;29;1911;-77
2023/06/15 11:10:02;;;;;;;;;;;;;;;22.37;30.32;97819.28;4935014;29;1448;-78
2023/06/15 11:12:37;;;;;;;;;;;;;;;22.31;30.33;97813.41;4937915;29;893;-77
2023/06/15 11:15:03;;;;;;;;;;;;;;;22.36;30.37;97820.53;4921402;29;791;-77
2023/06/15 11:17:29;;;;;;;;;;;;;;;22.25;30.39;97815.22;4937590;29;1294;-77
2023/06/15 11:19:55;;;;;;;;;;;;;;;22.28;30.26;97817.16;4937291;29;748;-77
2023/06/15 11:22:27;;;;;;;;;;;;;;;22.26;30.11;97810.34;4937317;29;909;-77
2023/06/15 11:24:53;;;;;;;;;;;;;;;22.21;30.38;97808.88;4937688;29;846;-77
2023/06/15 11:27:20;;;;;;;;;;;;;;;22.43;30.22;97808.16;4971161;28;1910;-77
2023/06/15 11:29:46;;;;;;;;;;;;;;;22.23;30.45;97817.72;4978765;28;889;-77
2023/06/15 11:32:11;;;;;;;;;;;;;;;22.27;30.55;97812.72;4994877;28;772;-77
2023/06/15 11:34:37;;;;;;;;;;;;;;;22.10;30.47;97820.53;4994977;28;960;-77
2023/06/15 11:37:03;;;;;;;;;;;;;;;22.31;30.25;97813.41;5011804;28;1032;-77
2023/06/15 11:39:30;;;;;;;;;;;;;;;22.36;30.01;97809.19;5030334;28;1155;-77
2023/06/15 11:41:59;;;;;;;;;;;;;;;22.40;30.04;97804.22;5048555;28;1040;-77
2023/06/15 11:44:26;;;;;;;;;;;;;;;22.42;30.09;97807.38;5031733;28;1060;-77
2023/06/15 11:46:55;;;;;;;;;;;;;;;22.04;30.62;97815.88;5000204;28;1989;-77
2023/06/15 11:49:21;;;;;;;;;;;;;;;22.22;30.40;97803.97;5014884;28;984;-77
2023/06/15 11:51:47;;;;;;;;;;;;;;;22.34;30.37;97801.16;4999153;28;1237;-77
2023/06/15 11:54:13;;;;;;;;;;;;;;;22.33;30.08;97799.56;4998390;28;872;-78
2023/06/15 11:56:45;;;;;;;;;;;;;;;22.18;30.77;97798.44;4983044;28;1223;-77
2023/06/15 11:59:12;;;;;;;;;;;;;;;22.30;30.49;97794.81;5018319;28;963;-77
2023/06/15 12:01:37;;;;;;;;;;;;;;;22.43;30.02;97796.81;5002543;28;975;-77
2023/06/15 12:04:06;;;;;;;;;;;;;;;22.42;30.03;97798.06;5017999;28;918;-77
2023/06/15 12:06:32;;;;;;;;;;;;;;;22.04;30.66;97793.19;5002535;28;2023;-77
2023/06/15 12:08:57;;;;;;;;;;;;;;;22.28;30.39;97791.66;5018159;28;919;-77
2023/06/15 12:11:23;;;;;;;;;;;;;;;22.30;30.12;97789.13;5002388;28;885;-77
2023/06/15 12:13:49;;;;;;;;;;;;;;;22.08;30.62;97802.38;4985280;28;1188;-77
2023/06/15 12:16:14;;;;;;;;;;;;;;;21.93;30.97;97789.91;5018780;28;884;-77
2023/06/15 12:18:40;;;;;;;;;;;;;;;21.88;31.27;97790.47;4998384;28;887;-77
2023/06/15 12:21:05;;;;;;;;;;;;;;;22.12;30.55;97788.91;4966883;28;970;-77
2023/06/15 12:23:31;;;;;;;;;;;;;;;22.21;30.58;97791.06;4978984;28;876;-77
2023/06/15 12:25:57;;;;;;;;;;;;;;;22.31;30.30;97785.06;4963420;28;1065;-77
2023/06/15 12:28:23;;;;;;;;;;;;;;;22.05;30.73;97789.13;4979500;28;1907;-77
2023/06/15 12:30:49;;;;;;;;;;;;;;;22.32;30.34;97785.84;4962888;28;1376;-77
2023/06/15 12:33:27;;;;;;;;;;;;;;;22.35;30.40;97779.28;4978808;28;1088;-77
2023/06/15 12:35:54;;;;;;;;;;;;;;;22.21;30.49;97785.41;4978935;28;936;-77
2023/06/15 12:38:20;;;;;;;;;;;;;;;22.05;30.64;97787.06;4962091;28;1262;-77
2023/06/15 12:40:47;;;;;;;;;;;;;;;22.03;30.79;97778.25;4979163;28;1187;-78
2023/06/15 12:43:14;;;;;;;;;;;;;;;22.10;30.71;97771.56;4978498;28;916;-77
2023/06/15 12:45:40;;;;;;;;;;;;;;;22.27;30.47;97763.75;4979498;28;905;-77
2023/06/15 12:48:06;;;;;;;;;;;;;;;22.12;30.54;97766.25;4923855;29;1919;-77
2023/06/15 12:50:32;;;;;;;;;;;;;;;22.12;30.86;97763.41;4960121;28;1103;-77
2023/06/15 12:52:58;;;;;;;;;;;;;;;22.23;30.45;97768.75;4962535;28;970;-77
2023/06/15 12:55:23;;;;;;;;;;;;;;;22.31;30.36;97762.38;4962788;28;994;-77
2023/06/15 12:57:49;;;;;;;;;;;;;;;22.28;30.39;97763.31;4962778;28;985;-77